sensor_id;sensor_type;location;lat;lon;timestamp;temperature;humidity
53268;DHT22;39156;51.176;6.738;2023-08-06T00:00:24;16.50;78.50
53268;DHT22;39156;51.176;6.738;2023-08-06T00:02:50;16.50;78.70
53268;DHT22;39156;51.176;6.738;2023-08-06T00:05:16;16.40;78.40
53268;DHT22;39156;51.176;6.738;2023-08-06T00:07:50;16.40;78.50
53268;DHT22;39156;51.176;6.738;2023-08-06T00:10:16;16.40;78.70
53268;DHT22;39156;51.176;6.738;2023-08-06T00:12:43;16.40;78.60
53268;DHT22;39156;51.176;6.738;2023-08-06T00:15:10;16.40;78.60
53268;DHT22;39156;51.176;6.738;2023-08-06T00:17:35;16.40;78.50
53268;DHT22;39156;51.176;6.738;2023-08-06T00:20:03;16.40;78.50
53268;DHT22;39156;51.176;6.738;2023-08-06T00:22:32;16.30;78.60
53268;DHT22;39156;51.176;6.738;2023-08-06T00:24:58;16.30;78.50
53268;DHT22;39156;51.176;6.738;2023-08-06T00:27:24;16.30;78.40
53268;DHT22;39156;51.176;6.738;2023-08-06T00:29:50;16.20;78.50
53268;DHT22;39156;51.176;6.738;2023-08-06T00:32:16;16.20;78.60
53268;DHT22;39156;51.176;6.738;2023-08-06T00:34:42;16.20;78.80
53268;DHT22;39156;51.176;6.738;2023-08-06T00:37:08;16.10;78.90
53268;DHT22;39156;51.176;6.738;2023-08-06T00:39:34;16.00;79.00
53268;DHT22;39156;51.176;6.738;2023-08-06T00:41:59;16.00;79.20
53268;DHT22;39156;51.176;6.738;2023-08-06T00:44:25;16.00;79.30
53268;DHT22;39156;51.176;6.738;2023-08-06T00:46:51;16.00;79.40
53268;DHT22;39156;51.176;6.738;2023-08-06T00:49:17;16.00;79.50
53268;DHT22;39156;51.176;6.738;2023-08-06T00:51:43;16.00;79.60
53268;DHT22;39156;51.176;6.738;2023-08-06T00:54:09;16.00;79.70
53268;DHT22;39156;51.176;6.738;2023-08-06T00:56:37;16.00;79.80
53268;DHT22;39156;51.176;6.738;2023-08-06T00:59:04;16.00;80.00
53268;DHT22;39156;51.176;6.738;2023-08-06T01:01:30;16.10;80.00
53268;DHT22;39156;51.176;6.738;2023-08-06T01:03:56;16.10;80.00
53268;DHT22;39156;51.176;6.738;2023-08-06T01:06:47;16.00;79.70
53268;DHT22;39156;51.176;6.738;2023-08-06T01:09:40;16.10;79.90
53268;DHT22;39156;51.176;6.738;2023-08-06T01:15:15;16.20;79.90
53268;DHT22;39156;51.176;6.738;2023-08-06T01:17:45;16.20;79.50
53268;DHT22;39156;51.176;6.738;2023-08-06T01:20:11;16.10;79.40
53268;DHT22;39156;51.176;6.738;2023-08-06T01:22:36;16.20;79.40
53268;DHT22;39156;51.176;6.738;2023-08-06T01:25:03;16.20;79.40
53268;DHT22;39156;51.176;6.738;2023-08-06T01:30:17;16.20;79.30
53268;DHT22;39156;51.176;6.738;2023-08-06T01:32:48;16.20;79.30
53268;DHT22;39156;51.176;6.738;2023-08-06T01:35:16;16.20;79.30
53268;DHT22;39156;51.176;6.738;2023-08-06T01:37:43;16.20;79.40
53268;DHT22;39156;51.176;6.738;2023-08-06T01:40:12;16.20;79.30
53268;DHT22;39156;51.176;6.738;2023-08-06T01:42:39;16.20;79.40
53268;DHT22;39156;51.176;6.738;2023-08-06T01:45:08;16.20;79.40
53268;DHT22;39156;51.176;6.738;2023-08-06T01:47:35;16.20;79.40
53268;DHT22;39156;51.176;6.738;2023-08-06T01:50:01;16.20;79.40
53268;DHT22;39156;51.176;6.738;2023-08-06T01:52:27;16.20;79.40
53268;DHT22;39156;51.176;6.738;2023-08-06T01:54:54;16.30;79.30
53268;DHT22;39156;51.176;6.738;2023-08-06T01:57:20;16.20;79.20
53268;DHT22;39156;51.176;6.738;2023-08-06T01:59:45;16.20;79.30
53268;DHT22;39156;51.176;6.738;2023-08-06T02:02:11;16.20;79.40
53268;DHT22;39156;51.176;6.738;2023-08-06T02:04:37;16.20;79.30
53268;DHT22;39156;51.176;6.738;2023-08-06T02:07:03;16.20;79.40
53268;DHT22;39156;51.176;6.738;2023-08-06T02:09:29;16.20;79.50
53268;DHT22;39156;51.176;6.738;2023-08-06T02:11:55;16.20;79.60
53268;DHT22;39156;51.176;6.738;2023-08-06T02:14:20;16.20;79.50
53268;DHT22;39156;51.176;6.738;2023-08-06T02:16:46;16.10;79.50
53268;DHT22;39156;51.176;6.738;2023-08-06T02:19:12;16.20;80.30
53268;DHT22;39156;51.176;6.738;2023-08-06T02:21:37;16.20;79.70
53268;DHT22;39156;51.176;6.738;2023-08-06T02:24:03;16.10;79.70
53268;DHT22;39156;51.176;6.738;2023-08-06T02:26:29;16.20;79.80
53268;DHT22;39156;51.176;6.738;2023-08-06T02:28:55;16.10;79.80
53268;DHT22;39156;51.176;6.738;2023-08-06T02:31:20;16.10;79.90
53268;DHT22;39156;51.176;6.738;2023-08-06T02:33:46;16.20;80.00
53268;DHT22;39156;51.176;6.738;2023-08-06T02:36:12;16.20;80.10
53268;DHT22;39156;51.176;6.738;2023-08-06T02:38:38;16.10;80.10
53268;DHT22;39156;51.176;6.738;2023-08-06T02:41:03;16.20;80.10
53268;DHT22;39156;51.176;6.738;2023-08-06T02:43:30;16.20;80.10
53268;DHT22;39156;51.176;6.738;2023-08-06T02:45:59;16.20;80.10
53268;DHT22;39156;51.176;6.738;2023-08-06T02:48:25;16.10;80.20
53268;DHT22;39156;51.176;6.738;2023-08-06T02:50:51;16.10;80.20
53268;DHT22;39156;51.176;6.738;2023-08-06T02:53:16;16.20;80.20
53268;DHT22;39156;51.176;6.738;2023-08-06T02:55:46;16.20;80.20
53268;DHT22;39156;51.176;6.738;2023-08-06T02:58:16;16.10;80.40
53268;DHT22;39156;51.176;6.738;2023-08-06T03:00:43;16.20;80.40
53268;DHT22;39156;51.176;6.738;2023-08-06T03:03:09;16.10;80.40
53268;DHT22;39156;51.176;6.738;2023-08-06T03:05:35;16.20;80.50
53268;DHT22;39156;51.176;6.738;2023-08-06T03:08:00;16.10;80.10
53268;DHT22;39156;51.176;6.738;2023-08-06T03:10:26;16.10;80.40
53268;DHT22;39156;51.176;6.738;2023-08-06T03:12:52;16.00;80.30
53268;DHT22;39156;51.176;6.738;2023-08-06T03:15:18;16.10;80.50
53268;DHT22;39156;51.176;6.738;2023-08-06T03:17:43;16.10;81.30
53268;DHT22;39156;51.176;6.738;2023-08-06T03:20:10;16.00;80.70
53268;DHT22;39156;51.176;6.738;2023-08-06T03:22:36;16.00;80.60
53268;DHT22;39156;51.176;6.738;2023-08-06T03:25:02;16.00;80.80
53268;DHT22;39156;51.176;6.738;2023-08-06T03:27:28;15.90;80.80
53268;DHT22;39156;51.176;6.738;2023-08-06T03:29:54;15.90;80.90
53268;DHT22;39156;51.176;6.738;2023-08-06T03:32:20;15.90;81.00
53268;DHT22;39156;51.176;6.738;2023-08-06T03:34:45;15.90;81.10
53268;DHT22;39156;51.176;6.738;2023-08-06T03:37:11;15.80;81.10
53268;DHT22;39156;51.176;6.738;2023-08-06T03:39:37;15.80;81.10
53268;DHT22;39156;51.176;6.738;2023-08-06T03:42:03;15.80;81.30
53268;DHT22;39156;51.176;6.738;2023-08-06T03:44:29;15.80;81.40
53268;DHT22;39156;51.176;6.738;2023-08-06T03:46:56;15.80;81.40
53268;DHT22;39156;51.176;6.738;2023-08-06T03:49:21;15.70;81.40
53268;DHT22;39156;51.176;6.738;2023-08-06T03:51:47;15.70;81.60
53268;DHT22;39156;51.176;6.738;2023-08-06T03:54:13;15.60;81.60
53268;DHT22;39156;51.176;6.738;2023-08-06T03:56:38;15.70;81.70
53268;DHT22;39156;51.176;6.738;2023-08-06T03:59:04;15.70;81.70
53268;DHT22;39156;51.176;6.738;2023-08-06T04:01:30;15.60;81.90
53268;DHT22;39156;51.176;6.738;2023-08-06T04:03:55;15.70;82.00
53268;DHT22;39156;51.176;6.738;2023-08-06T04:06:21;15.70;82.20
53268;DHT22;39156;51.176;6.738;2023-08-06T04:08:46;15.60;82.80
53268;DHT22;39156;51.176;6.738;2023-08-06T04:11:12;15.70;82.20
53268;DHT22;39156;51.176;6.738;2023-08-06T04:13:38;15.60;82.30
53268;DHT22;39156;51.176;6.738;2023-08-06T04:16:07;15.60;82.40
53268;DHT22;39156;51.176;6.738;2023-08-06T04:18:33;15.70;82.40
53268;DHT22;39156;51.176;6.738;2023-08-06T04:20:59;15.70;82.60
53268;DHT22;39156;51.176;6.738;2023-08-06T04:23:24;15.70;82.40
53268;DHT22;39156;51.176;6.738;2023-08-06T04:25:50;15.70;82.40
53268;DHT22;39156;51.176;6.738;2023-08-06T04:28:16;15.70;82.40
53268;DHT22;39156;51.176;6.738;2023-08-06T04:30:42;15.70;82.30
53268;DHT22;39156;51.176;6.738;2023-08-06T04:33:07;15.70;82.30
53268;DHT22;39156;51.176;6.738;2023-08-06T04:35:33;15.80;82.20
53268;DHT22;39156;51.176;6.738;2023-08-06T04:37:58;15.80;82.30
53268;DHT22;39156;51.176;6.738;2023-08-06T04:40:24;15.80;82.30
53268;DHT22;39156;51.176;6.738;2023-08-06T04:42:50;15.80;82.30
53268;DHT22;39156;51.176;6.738;2023-08-06T04:45:16;15.80;82.30
53268;DHT22;39156;51.176;6.738;2023-08-06T04:47:41;15.80;82.30
53268;DHT22;39156;51.176;6.738;2023-08-06T04:50:07;15.80;82.40
53268;DHT22;39156;51.176;6.738;2023-08-06T04:52:33;15.80;82.50
53268;DHT22;39156;51.176;6.738;2023-08-06T04:54:59;15.80;82.50
53268;DHT22;39156;51.176;6.738;2023-08-06T04:57:25;15.80;82.60
53268;DHT22;39156;51.176;6.738;2023-08-06T04:59:50;15.90;82.70
53268;DHT22;39156;51.176;6.738;2023-08-06T05:02:16;15.90;82.90
53268;DHT22;39156;51.176;6.738;2023-08-06T05:04:42;15.80;82.80
53268;DHT22;39156;51.176;6.738;2023-08-06T05:07:07;15.90;82.90
53268;DHT22;39156;51.176;6.738;2023-08-06T05:09:33;16.00;82.90
53268;DHT22;39156;51.176;6.738;2023-08-06T05:12:04;16.00;82.90
53268;DHT22;39156;51.176;6.738;2023-08-06T05:14:30;15.90;83.00
53268;DHT22;39156;51.176;6.738;2023-08-06T05:16:56;16.00;82.90
53268;DHT22;39156;51.176;6.738;2023-08-06T05:19:21;16.00;83.00
53268;DHT22;39156;51.176;6.738;2023-08-06T05:21:47;16.10;83.00
53268;DHT22;39156;51.176;6.738;2023-08-06T05:24:12;16.10;82.90
53268;DHT22;39156;51.176;6.738;2023-08-06T05:26:38;16.20;82.70
53268;DHT22;39156;51.176;6.738;2023-08-06T05:29:04;16.20;82.70
53268;DHT22;39156;51.176;6.738;2023-08-06T05:31:30;16.20;83.40
53268;DHT22;39156;51.176;6.738;2023-08-06T05:33:55;16.20;82.80
53268;DHT22;39156;51.176;6.738;2023-08-06T05:36:21;16.30;82.90
53268;DHT22;39156;51.176;6.738;2023-08-06T05:38:47;16.30;82.80
53268;DHT22;39156;51.176;6.738;2023-08-06T05:41:13;16.30;82.80
53268;DHT22;39156;51.176;6.738;2023-08-06T05:43:39;16.30;82.80
53268;DHT22;39156;51.176;6.738;2023-08-06T05:46:04;16.40;82.70
53268;DHT22;39156;51.176;6.738;2023-08-06T05:48:30;16.40;82.80
53268;DHT22;39156;51.176;6.738;2023-08-06T05:50:57;16.50;82.50
53268;DHT22;39156;51.176;6.738;2023-08-06T05:53:24;16.60;82.40
53268;DHT22;39156;51.176;6.738;2023-08-06T05:55:50;16.60;82.30
53268;DHT22;39156;51.176;6.738;2023-08-06T05:58:15;16.70;82.20
53268;DHT22;39156;51.176;6.738;2023-08-06T06:00:41;16.70;82.10
53268;DHT22;39156;51.176;6.738;2023-08-06T06:03:07;16.70;82.10
53268;DHT22;39156;51.176;6.738;2023-08-06T06:05:33;16.70;82.00
53268;DHT22;39156;51.176;6.738;2023-08-06T06:07:58;16.70;81.80
53268;DHT22;39156;51.176;6.738;2023-08-06T06:10:24;16.80;81.70
53268;DHT22;39156;51.176;6.738;2023-08-06T06:12:49;16.80;81.50
53268;DHT22;39156;51.176;6.738;2023-08-06T06:15:15;16.70;81.30
53268;DHT22;39156;51.176;6.738;2023-08-06T06:17:41;16.80;81.40
53268;DHT22;39156;51.176;6.738;2023-08-06T06:20:07;16.80;81.10
53268;DHT22;39156;51.176;6.738;2023-08-06T06:22:33;16.80;81.00
53268;DHT22;39156;51.176;6.738;2023-08-06T06:24:58;16.70;80.90
53268;DHT22;39156;51.176;6.738;2023-08-06T06:27:24;16.80;80.90
53268;DHT22;39156;51.176;6.738;2023-08-06T06:29:50;16.80;80.90
53268;DHT22;39156;51.176;6.738;2023-08-06T06:32:17;16.80;80.90
53268;DHT22;39156;51.176;6.738;2023-08-06T06:34:43;16.80;80.90
53268;DHT22;39156;51.176;6.738;2023-08-06T06:37:09;16.80;81.20
53268;DHT22;39156;51.176;6.738;2023-08-06T06:39:34;16.80;81.30
53268;DHT22;39156;51.176;6.738;2023-08-06T06:42:00;16.80;81.40
53268;DHT22;39156;51.176;6.738;2023-08-06T06:44:26;16.80;81.40
53268;DHT22;39156;51.176;6.738;2023-08-06T06:46:51;16.80;81.30
53268;DHT22;39156;51.176;6.738;2023-08-06T06:49:17;16.90;81.80
53268;DHT22;39156;51.176;6.738;2023-08-06T06:51:43;17.00;81.70
53268;DHT22;39156;51.176;6.738;2023-08-06T06:54:08;17.00;82.10
53268;DHT22;39156;51.176;6.738;2023-08-06T06:56:34;17.00;81.90
53268;DHT22;39156;51.176;6.738;2023-08-06T06:59:00;17.20;82.10
53268;DHT22;39156;51.176;6.738;2023-08-06T07:01:25;17.30;81.80
53268;DHT22;39156;51.176;6.738;2023-08-06T07:03:51;17.30;81.70
53268;DHT22;39156;51.176;6.738;2023-08-06T07:06:17;17.50;80.90
53268;DHT22;39156;51.176;6.738;2023-08-06T07:08:44;17.60;80.60
53268;DHT22;39156;51.176;6.738;2023-08-06T07:11:10;17.70;80.30
53268;DHT22;39156;51.176;6.738;2023-08-06T07:13:36;17.70;81.10
53268;DHT22;39156;51.176;6.738;2023-08-06T07:16:02;17.80;80.40
53268;DHT22;39156;51.176;6.738;2023-08-06T07:18:28;17.80;80.30
53268;DHT22;39156;51.176;6.738;2023-08-06T07:20:54;17.90;80.80
53268;DHT22;39156;51.176;6.738;2023-08-06T07:23:21;18.00;80.20
53268;DHT22;39156;51.176;6.738;2023-08-06T07:25:47;18.00;79.90
53268;DHT22;39156;51.176;6.738;2023-08-06T07:28:14;18.10;79.80
53268;DHT22;39156;51.176;6.738;2023-08-06T07:30:40;18.10;80.30
53268;DHT22;39156;51.176;6.738;2023-08-06T07:33:07;18.20;80.30
53268;DHT22;39156;51.176;6.738;2023-08-06T07:35:33;18.20;80.20
53268;DHT22;39156;51.176;6.738;2023-08-06T07:37:59;18.30;80.20
53268;DHT22;39156;51.176;6.738;2023-08-06T07:40:25;18.20;79.80
53268;DHT22;39156;51.176;6.738;2023-08-06T07:42:50;18.30;80.00
53268;DHT22;39156;51.176;6.738;2023-08-06T07:45:16;18.30;79.90
53268;DHT22;39156;51.176;6.738;2023-08-06T07:47:42;18.40;79.60
53268;DHT22;39156;51.176;6.738;2023-08-06T07:50:09;18.40;80.00
53268;DHT22;39156;51.176;6.738;2023-08-06T07:52:35;18.50;80.10
53268;DHT22;39156;51.176;6.738;2023-08-06T07:55:01;18.50;80.30
53268;DHT22;39156;51.176;6.738;2023-08-06T07:57:30;18.60;79.80
53268;DHT22;39156;51.176;6.738;2023-08-06T07:59:56;18.70;79.80
53268;DHT22;39156;51.176;6.738;2023-08-06T08:02:22;18.90;79.80
53268;DHT22;39156;51.176;6.738;2023-08-06T08:04:48;19.00;79.60
53268;DHT22;39156;51.176;6.738;2023-08-06T08:07:14;19.10;79.50
53268;DHT22;39156;51.176;6.738;2023-08-06T08:09:39;19.40;79.50
53268;DHT22;39156;51.176;6.738;2023-08-06T08:12:05;19.50;79.10
53268;DHT22;39156;51.176;6.738;2023-08-06T08:14:31;19.70;78.90
53268;DHT22;39156;51.176;6.738;2023-08-06T08:17:04;19.90;78.50
53268;DHT22;39156;51.176;6.738;2023-08-06T08:19:31;20.00;77.50
53268;DHT22;39156;51.176;6.738;2023-08-06T08:21:57;20.10;77.80
53268;DHT22;39156;51.176;6.738;2023-08-06T08:24:23;20.30;78.10
53268;DHT22;39156;51.176;6.738;2023-08-06T08:26:50;20.50;77.00
53268;DHT22;39156;51.176;6.738;2023-08-06T08:29:16;20.50;76.60
53268;DHT22;39156;51.176;6.738;2023-08-06T08:31:42;20.70;76.40
53268;DHT22;39156;51.176;6.738;2023-08-06T08:34:08;20.90;77.60
53268;DHT22;39156;51.176;6.738;2023-08-06T08:36:34;21.20;78.70
53268;DHT22;39156;51.176;6.738;2023-08-06T08:39:00;21.60;78.80
53268;DHT22;39156;51.176;6.738;2023-08-06T08:41:29;22.10;76.80
53268;DHT22;39156;51.176;6.738;2023-08-06T08:43:56;22.40;74.50
53268;DHT22;39156;51.176;6.738;2023-08-06T08:46:25;22.70;73.80
53268;DHT22;39156;51.176;6.738;2023-08-06T08:48:53;22.90;72.40
53268;DHT22;39156;51.176;6.738;2023-08-06T08:51:20;23.00;71.50
53268;DHT22;39156;51.176;6.738;2023-08-06T08:53:46;23.20;70.70
53268;DHT22;39156;51.176;6.738;2023-08-06T08:56:13;23.20;72.60
53268;DHT22;39156;51.176;6.738;2023-08-06T08:58:40;23.10;69.70
53268;DHT22;39156;51.176;6.738;2023-08-06T09:01:06;23.00;69.50
53268;DHT22;39156;51.176;6.738;2023-08-06T09:03:33;22.80;69.30
53268;DHT22;39156;51.176;6.738;2023-08-06T09:06:01;22.60;68.80
53268;DHT22;39156;51.176;6.738;2023-08-06T09:08:34;22.40;69.20
53268;DHT22;39156;51.176;6.738;2023-08-06T09:11:05;22.30;69.60
53268;DHT22;39156;51.176;6.738;2023-08-06T09:13:36;22.10;69.90
53268;DHT22;39156;51.176;6.738;2023-08-06T09:16:03;22.10;71.10
53268;DHT22;39156;51.176;6.738;2023-08-06T09:18:31;22.20;72.50
53268;DHT22;39156;51.176;6.738;2023-08-06T09:20:57;22.60;73.10
53268;DHT22;39156;51.176;6.738;2023-08-06T09:23:30;22.90;71.50
53268;DHT22;39156;51.176;6.738;2023-08-06T09:25:57;23.30;69.00
53268;DHT22;39156;51.176;6.738;2023-08-06T09:28:23;23.50;68.90
53268;DHT22;39156;51.176;6.738;2023-08-06T09:30:52;23.50;68.40
53268;DHT22;39156;51.176;6.738;2023-08-06T09:33:22;23.30;67.30
53268;DHT22;39156;51.176;6.738;2023-08-06T09:35:48;23.00;67.30
53268;DHT22;39156;51.176;6.738;2023-08-06T09:38:14;22.70;66.50
53268;DHT22;39156;51.176;6.738;2023-08-06T09:40:40;22.30;66.80
53268;DHT22;39156;51.176;6.738;2023-08-06T09:43:06;21.90;67.30
53268;DHT22;39156;51.176;6.738;2023-08-06T09:45:33;21.60;68.30
53268;DHT22;39156;51.176;6.738;2023-08-06T09:48:04;21.20;68.60
53268;DHT22;39156;51.176;6.738;2023-08-06T09:50:31;20.80;69.20
53268;DHT22;39156;51.176;6.738;2023-08-06T09:52:59;20.50;70.20
53268;DHT22;39156;51.176;6.738;2023-08-06T09:55:26;20.20;71.10
53268;DHT22;39156;51.176;6.738;2023-08-06T09:57:53;19.90;71.50
53268;DHT22;39156;51.176;6.738;2023-08-06T10:00:19;19.70;72.20
53268;DHT22;39156;51.176;6.738;2023-08-06T10:02:48;19.50;72.30
53268;DHT22;39156;51.176;6.738;2023-08-06T10:05:15;19.30;72.80
53268;DHT22;39156;51.176;6.738;2023-08-06T10:07:43;19.10;73.40
53268;DHT22;39156;51.176;6.738;2023-08-06T10:10:10;18.90;74.70
53268;DHT22;39156;51.176;6.738;2023-08-06T10:12:40;18.80;74.90
53268;DHT22;39156;51.176;6.738;2023-08-06T10:15:23;18.80;76.00
53268;DHT22;39156;51.176;6.738;2023-08-06T10:17:52;18.70;75.80
53268;DHT22;39156;51.176;6.738;2023-08-06T10:20:20;18.60;75.20
53268;DHT22;39156;51.176;6.738;2023-08-06T10:23:01;18.50;75.40
53268;DHT22;39156;51.176;6.738;2023-08-06T10:25:31;18.40;75.90
53268;DHT22;39156;51.176;6.738;2023-08-06T10:27:59;18.30;75.80
53268;DHT22;39156;51.176;6.738;2023-08-06T10:33:01;18.10;76.20
53268;DHT22;39156;51.176;6.738;2023-08-06T10:38:13;17.80;76.40
53268;DHT22;39156;51.176;6.738;2023-08-06T10:41:02;17.70;77.00
53268;DHT22;39156;51.176;6.738;2023-08-06T10:43:34;17.70;76.80
53268;DHT22;39156;51.176;6.738;2023-08-06T10:46:02;17.60;76.90
53268;DHT22;39156;51.176;6.738;2023-08-06T10:48:36;17.60;77.30
53268;DHT22;39156;51.176;6.738;2023-08-06T10:51:07;17.60;76.90
53268;DHT22;39156;51.176;6.738;2023-08-06T10:53:34;17.60;77.70
53268;DHT22;39156;51.176;6.738;2023-08-06T10:56:19;17.50;77.40
53268;DHT22;39156;51.176;6.738;2023-08-06T10:58:49;17.50;77.20
53268;DHT22;39156;51.176;6.738;2023-08-06T11:01:16;17.50;77.10
53268;DHT22;39156;51.176;6.738;2023-08-06T11:03:44;17.40;77.60
53268;DHT22;39156;51.176;6.738;2023-08-06T11:06:11;17.50;77.70
53268;DHT22;39156;51.176;6.738;2023-08-06T11:08:49;17.40;77.60
53268;DHT22;39156;51.176;6.738;2023-08-06T11:11:16;17.20;77.40
53268;DHT22;39156;51.176;6.738;2023-08-06T11:13:46;17.30;77.70
53268;DHT22;39156;51.176;6.738;2023-08-06T11:16:18;17.30;77.70
53268;DHT22;39156;51.176;6.738;2023-08-06T11:18:45;17.20;77.90
53268;DHT22;39156;51.176;6.738;2023-08-06T11:21:11;17.10;77.90
53268;DHT22;39156;51.176;6.738;2023-08-06T11:23:37;17.10;78.00
53268;DHT22;39156;51.176;6.738;2023-08-06T11:26:04;17.00;78.60
53268;DHT22;39156;51.176;6.738;2023-08-06T11:28:30;16.90;79.00
53268;DHT22;39156;51.176;6.738;2023-08-06T11:30:55;16.90;78.90
53268;DHT22;39156;51.176;6.738;2023-08-06T11:33:26;16.80;78.80
53268;DHT22;39156;51.176;6.738;2023-08-06T11:35:55;16.80;79.30
53268;DHT22;39156;51.176;6.738;2023-08-06T11:38:24;16.80;79.70
53268;DHT22;39156;51.176;6.738;2023-08-06T11:40:50;16.80;79.90
53268;DHT22;39156;51.176;6.738;2023-08-06T11:43:18;16.80;79.40
53268;DHT22;39156;51.176;6.738;2023-08-06T11:45:46;16.70;79.80
53268;DHT22;39156;51.176;6.738;2023-08-06T11:48:12;16.60;79.50
53268;DHT22;39156;51.176;6.738;2023-08-06T11:50:38;16.70;79.70
53268;DHT22;39156;51.176;6.738;2023-08-06T11:53:04;16.70;80.60
53268;DHT22;39156;51.176;6.738;2023-08-06T11:55:30;16.60;80.00
53268;DHT22;39156;51.176;6.738;2023-08-06T11:57:57;16.50;79.70
53268;DHT22;39156;51.176;6.738;2023-08-06T12:00:24;16.60;79.60
53268;DHT22;39156;51.176;6.738;2023-08-06T12:02:51;16.60;80.10
53268;DHT22;39156;51.176;6.738;2023-08-06T12:05:19;16.60;79.90
53268;DHT22;39156;51.176;6.738;2023-08-06T12:07:48;16.50;80.10
53268;DHT22;39156;51.176;6.738;2023-08-06T12:10:15;16.50;79.90
53268;DHT22;39156;51.176;6.738;2023-08-06T12:12:41;16.60;80.50
53268;DHT22;39156;51.176;6.738;2023-08-06T12:15:08;16.60;80.40
53268;DHT22;39156;51.176;6.738;2023-08-06T12:17:35;16.60;80.40
53268;DHT22;39156;51.176;6.738;2023-08-06T12:20:02;16.50;80.40
53268;DHT22;39156;51.176;6.738;2023-08-06T12:22:32;16.60;80.70
53268;DHT22;39156;51.176;6.738;2023-08-06T12:25:04;16.70;80.60
53268;DHT22;39156;51.176;6.738;2023-08-06T12:27:35;16.70;80.70
53268;DHT22;39156;51.176;6.738;2023-08-06T12:30:01;16.60;80.10
53268;DHT22;39156;51.176;6.738;2023-08-06T12:32:27;16.70;80.40
53268;DHT22;39156;51.176;6.738;2023-08-06T12:34:52;16.80;80.50
53268;DHT22;39156;51.176;6.738;2023-08-06T12:37:18;16.80;80.50
53268;DHT22;39156;51.176;6.738;2023-08-06T12:39:44;16.80;80.50
53268;DHT22;39156;51.176;6.738;2023-08-06T12:42:09;16.80;80.00
53268;DHT22;39156;51.176;6.738;2023-08-06T12:44:36;16.80;79.70
53268;DHT22;39156;51.176;6.738;2023-08-06T12:47:01;16.90;79.30
53268;DHT22;39156;51.176;6.738;2023-08-06T12:49:27;16.80;79.70
53268;DHT22;39156;51.176;6.738;2023-08-06T12:51:54;16.80;79.40
53268;DHT22;39156;51.176;6.738;2023-08-06T12:54:21;16.90;79.60
53268;DHT22;39156;51.176;6.738;2023-08-06T12:56:47;16.90;79.60
53268;DHT22;39156;51.176;6.738;2023-08-06T12:59:15;17.00;79.40
53268;DHT22;39156;51.176;6.738;2023-08-06T13:01:42;17.00;79.10
53268;DHT22;39156;51.176;6.738;2023-08-06T13:04:08;17.00;79.20
53268;DHT22;39156;51.176;6.738;2023-08-06T13:06:34;17.00;78.60
53268;DHT22;39156;51.176;6.738;2023-08-06T13:09:11;17.00;78.60
53268;DHT22;39156;51.176;6.738;2023-08-06T13:11:37;17.10;77.70
53268;DHT22;39156;51.176;6.738;2023-08-06T13:14:08;17.00;78.00
53268;DHT22;39156;51.176;6.738;2023-08-06T13:16:39;17.00;77.80
53268;DHT22;39156;51.176;6.738;2023-08-06T13:19:06;17.10;77.70
53268;DHT22;39156;51.176;6.738;2023-08-06T13:21:33;17.10;77.50
53268;DHT22;39156;51.176;6.738;2023-08-06T13:24:01;17.10;77.10
53268;DHT22;39156;51.176;6.738;2023-08-06T13:26:29;17.10;77.30
53268;DHT22;39156;51.176;6.738;2023-08-06T13:28:57;17.10;77.70
53268;DHT22;39156;51.176;6.738;2023-08-06T13:31:24;17.20;77.50
53268;DHT22;39156;51.176;6.738;2023-08-06T13:33:50;17.20;77.30
53268;DHT22;39156;51.176;6.738;2023-08-06T13:36:16;17.10;77.30
53268;DHT22;39156;51.176;6.738;2023-08-06T13:38:42;17.30;77.20
53268;DHT22;39156;51.176;6.738;2023-08-06T13:41:09;17.20;77.30
53268;DHT22;39156;51.176;6.738;2023-08-06T13:43:35;17.30;77.50
53268;DHT22;39156;51.176;6.738;2023-08-06T13:46:00;17.30;77.50
53268;DHT22;39156;51.176;6.738;2023-08-06T13:48:26;17.20;77.20
53268;DHT22;39156;51.176;6.738;2023-08-06T13:50:52;17.30;77.70
53268;DHT22;39156;51.176;6.738;2023-08-06T13:53:18;17.30;78.00
53268;DHT22;39156;51.176;6.738;2023-08-06T13:55:43;17.30;77.90
53268;DHT22;39156;51.176;6.738;2023-08-06T13:58:09;17.30;78.20
53268;DHT22;39156;51.176;6.738;2023-08-06T14:00:37;17.30;78.30
53268;DHT22;39156;51.176;6.738;2023-08-06T14:03:03;17.30;78.00
53268;DHT22;39156;51.176;6.738;2023-08-06T14:05:29;17.30;78.50
53268;DHT22;39156;51.176;6.738;2023-08-06T14:07:55;17.30;78.40
53268;DHT22;39156;51.176;6.738;2023-08-06T14:10:20;17.30;78.20
53268;DHT22;39156;51.176;6.738;2023-08-06T14:12:46;17.30;78.90
53268;DHT22;39156;51.176;6.738;2023-08-06T14:15:12;17.30;78.90
53268;DHT22;39156;51.176;6.738;2023-08-06T14:17:37;17.40;78.90
53268;DHT22;39156;51.176;6.738;2023-08-06T14:20:04;17.50;79.00
53268;DHT22;39156;51.176;6.738;2023-08-06T14:22:32;17.60;78.20
53268;DHT22;39156;51.176;6.738;2023-08-06T14:24:58;17.60;78.20
53268;DHT22;39156;51.176;6.738;2023-08-06T14:27:25;17.70;78.50
53268;DHT22;39156;51.176;6.738;2023-08-06T14:29:50;17.70;78.60
53268;DHT22;39156;51.176;6.738;2023-08-06T14:32:16;17.80;78.40
53268;DHT22;39156;51.176;6.738;2023-08-06T14:34:43;17.90;78.00
53268;DHT22;39156;51.176;6.738;2023-08-06T14:37:10;17.90;78.40
53268;DHT22;39156;51.176;6.738;2023-08-06T14:39:36;17.90;78.20
53268;DHT22;39156;51.176;6.738;2023-08-06T14:42:02;18.00;77.60
53268;DHT22;39156;51.176;6.738;2023-08-06T14:44:29;18.00;77.10
53268;DHT22;39156;51.176;6.738;2023-08-06T14:46:54;18.00;77.00
53268;DHT22;39156;51.176;6.738;2023-08-06T14:49:20;18.00;77.20
53268;DHT22;39156;51.176;6.738;2023-08-06T14:51:46;18.00;77.40
53268;DHT22;39156;51.176;6.738;2023-08-06T14:54:11;18.00;77.20
53268;DHT22;39156;51.176;6.738;2023-08-06T14:56:37;18.00;77.00
53268;DHT22;39156;51.176;6.738;2023-08-06T14:59:03;18.00;77.00
53268;DHT22;39156;51.176;6.738;2023-08-06T15:01:29;18.10;76.90
53268;DHT22;39156;51.176;6.738;2023-08-06T15:03:55;18.10;76.90
53268;DHT22;39156;51.176;6.738;2023-08-06T15:06:20;18.10;77.10
53268;DHT22;39156;51.176;6.738;2023-08-06T15:08:46;18.10;77.20
53268;DHT22;39156;51.176;6.738;2023-08-06T15:11:15;18.10;77.20
53268;DHT22;39156;51.176;6.738;2023-08-06T15:13:41;18.10;77.60
53268;DHT22;39156;51.176;6.738;2023-08-06T15:16:07;18.00;77.40
53268;DHT22;39156;51.176;6.738;2023-08-06T15:18:32;18.00;77.40
53268;DHT22;39156;51.176;6.738;2023-08-06T15:20:58;17.90;77.30
53268;DHT22;39156;51.176;6.738;2023-08-06T15:23:24;17.90;77.30
53268;DHT22;39156;51.176;6.738;2023-08-06T15:25:50;17.80;77.40
53268;DHT22;39156;51.176;6.738;2023-08-06T15:28:16;17.80;78.00
53268;DHT22;39156;51.176;6.738;2023-08-06T15:30:51;17.80;78.30
53268;DHT22;39156;51.176;6.738;2023-08-06T15:33:21;17.70;78.30
53268;DHT22;39156;51.176;6.738;2023-08-06T15:35:47;17.70;78.40
53268;DHT22;39156;51.176;6.738;2023-08-06T15:38:14;17.80;78.50